Cruz Bay, VI

9:22 PM AST on July 30, 2015 (GMT -0400)
Chocolate Hole | | Change Station
CLOSE
Current Station
Personal Weather Station
Location: St. John, ST. JOHN
Elevation: 300 ft
Nearby Weather Stations

Elev 300 ft 18.32 °N, 64.78 °W | Updated 31 seconds ago

Overcast
Overcast
81.7 °F
Feels Like 88 °F
N
1.1
Wind Variable Wind from East
Gusts 2.5 mph

Today
High -- | Low -- °F
--% Chance of Precip.
Yesterday
High -- | Low -- °F
Precip. -- in
5:56 AM 6:54 PM
Full, 100% visible
Pressure 30.05 in
Visibility 10.0 miles
Clouds Scattered Clouds 3700 ft
Scattered Clouds 5000 ft
Heat Index 88 °F
Dew Point 75 °F
Humidity 80%
Rainfall 0.00 in
Snow Depth Not available.
UV 0.0 out of 12
Pollen Not available.
Air Quality Not available.
Flu Activity Not available.
METAR TIST 310053Z 08010KT 10SM -RA SCT037 SCT050 28/24 A3005 RMK AO2 RAB46 SLP175 P0000 T02830239

More Conditions Fewer Conditions

Pressure 30.05 in
Visibility 10.0 miles
Clouds Scattered Clouds 3700 ft
Scattered Clouds 5000 ft
Heat Index 88 °F
Dew Point 75 °F
Humidity 80%
Rainfall 0.00 in
Snow Depth Not available.
UV 0.0 out of 12
Pollen Not available.
Air Quality Not available.
Flu Activity Not available.
METAR TIST 310053Z 08010KT 10SM -RA SCT037 SCT050 28/24 A3005 RMK AO2 RAB46 SLP175 P0000 T02830239

More Conditions Fewer Conditions

10-Day Weather Forecast

×

Almanac

Astronomy

Jul. 30, 2015 Rise Set
Actual Time
Civil Twilight
Nautical Twilight
Astronomical Twilight
Moon
Length of Visible Light
Length of Day
Tomorrow will be .
, % of the Moon is Illuminated

Today's Extremes

State Highs State Lows

Community

WunderPhotos

Upload Photos

1,842,556 photos uploaded!

WunderBlogs® & News

Nearby

Air Quality

  Air Quality AQ Index Pollutant
Not available.

Snow Depth

Station Depth Elevation

Earthquake Activity

City Distance Mag. Time & Date
Minimum magnitude displayed is 2.5.

Coastal Water Temperatures

Place Temperature

Stations

Nearby Weather Stations

Station Location Temp. Windchill Dew Point Humidity Wind Precip. Elev Updated Type